createdAt,value
2018-05-02T00:00:29.169Z,0.00
2018-05-02T00:01:29.086Z,0.00
2018-05-02T00:02:29.028Z,0.00
2018-05-02T00:03:28.948Z,0.00
2018-05-02T00:04:28.887Z,0.00
2018-05-02T00:05:28.816Z,0.00
2018-05-02T00:06:28.746Z,0.00
2018-05-02T00:07:28.675Z,0.00
2018-05-02T00:08:28.609Z,0.00
2018-05-02T00:09:28.544Z,0.00
2018-05-02T00:10:28.466Z,0.00
2018-05-02T00:11:28.401Z,0.00
2018-05-02T00:12:28.329Z,0.00
2018-05-02T00:13:28.277Z,0.00
2018-05-02T00:14:28.205Z,0.00
2018-05-02T00:15:28.121Z,0.00
2018-05-02T00:16:28.063Z,0.00
2018-05-02T00:17:28.001Z,0.00
2018-05-02T00:18:27.935Z,0.00
2018-05-02T00:19:27.859Z,0.00
2018-05-02T00:20:27.791Z,0.00
2018-05-02T00:21:27.721Z,0.00
2018-05-02T00:22:27.649Z,0.00
2018-05-02T00:23:27.594Z,0.00
2018-05-02T00:24:27.529Z,0.00
2018-05-02T00:25:27.449Z,0.00
2018-05-02T00:26:27.396Z,0.00
2018-05-02T00:27:27.327Z,0.00
2018-05-02T00:28:27.235Z,0.00
2018-05-02T00:29:27.179Z,0.00
2018-05-02T00:30:27.110Z,0.00
2018-05-02T00:31:27.054Z,0.00
2018-05-02T00:32:26.984Z,0.00
2018-05-02T00:33:26.897Z,0.00
2018-05-02T00:34:26.836Z,0.00
2018-05-02T00:35:26.761Z,0.00
2018-05-02T00:36:26.703Z,0.00
2018-05-02T00:37:26.625Z,0.00
2018-05-02T00:38:26.562Z,0.00
2018-05-02T00:39:26.497Z,0.00
2018-05-02T00:40:26.417Z,0.00
2018-05-02T00:41:26.355Z,0.00
2018-05-02T00:42:26.284Z,0.00
2018-05-02T00:43:26.234Z,0.00
2018-05-02T00:44:26.151Z,0.00
2018-05-02T00:45:26.100Z,0.00
2018-05-02T00:46:26.016Z,0.00
2018-05-02T00:47:25.943Z,0.00
2018-05-02T00:48:25.875Z,0.00
2018-05-02T00:49:25.825Z,0.00
2018-05-02T00:50:25.735Z,0.00
2018-05-02T00:51:25.693Z,0.00
2018-05-02T00:52:25.607Z,0.00
2018-05-02T00:53:25.548Z,0.00
2018-05-02T00:54:25.467Z,0.00
2018-05-02T00:55:25.399Z,0.00
2018-05-02T00:56:25.337Z,0.00
2018-05-02T00:57:25.278Z,0.00
2018-05-02T00:58:25.191Z,0.00
2018-05-02T00:59:25.123Z,0.00
2018-05-02T01:00:25.059Z,0.00
2018-05-02T01:01:25.007Z,0.00
2018-05-02T01:02:24.915Z,0.00
2018-05-02T01:03:24.845Z,0.00
2018-05-02T01:04:24.789Z,0.00
2018-05-02T01:05:24.711Z,0.00
2018-05-02T01:06:24.664Z,0.00
2018-05-02T01:07:24.580Z,0.00
2018-05-02T01:08:24.532Z,0.00
2018-05-02T01:09:24.459Z,0.00
2018-05-02T01:10:24.388Z,0.00
2018-05-02T01:11:24.318Z,0.00
2018-05-02T01:12:24.235Z,0.00
2018-05-02T01:13:24.165Z,0.00
2018-05-02T01:14:24.093Z,0.00
2018-05-02T01:15:24.027Z,0.00
2018-05-02T01:16:23.975Z,0.00
2018-05-02T01:17:23.889Z,0.00
2018-05-02T01:18:23.822Z,0.00
2018-05-02T01:19:23.774Z,0.00
2018-05-02T01:20:23.700Z,0.00
2018-05-02T01:21:23.630Z,0.00
2018-05-02T01:22:23.553Z,0.00
2018-05-02T01:23:23.471Z,0.00
2018-05-02T01:24:23.407Z,0.00
2018-05-02T01:25:23.357Z,0.00
2018-05-02T01:26:23.264Z,0.00
2018-05-02T01:27:23.197Z,0.00
2018-05-02T01:28:23.143Z,0.00
2018-05-02T01:29:23.077Z,0.00
2018-05-02T01:30:23.004Z,0.00
2018-05-02T01:31:22.945Z,0.00
2018-05-02T01:32:22.875Z,0.00
2018-05-02T01:33:22.804Z,0.00
2018-05-02T01:34:22.743Z,0.00
2018-05-02T01:35:22.655Z,0.00
2018-05-02T01:36:22.584Z,0.00
2018-05-02T01:37:22.529Z,0.00
2018-05-02T01:38:22.455Z,0.00
2018-05-02T01:39:22.389Z,0.00
2018-05-02T01:40:22.327Z,0.00
2018-05-02T01:41:22.240Z,0.00
2018-05-02T01:42:22.171Z,0.00
2018-05-02T01:43:22.105Z,0.00
2018-05-02T01:44:22.028Z,0.00
2018-05-02T01:45:21.975Z,0.00
2018-05-02T01:46:21.893Z,0.00
2018-05-02T01:47:21.834Z,0.00
2018-05-02T01:48:21.761Z,0.00
2018-05-02T01:49:21.691Z,0.00
2018-05-02T01:50:21.628Z,0.00
2018-05-02T01:51:21.552Z,0.00
2018-05-02T01:52:21.480Z,0.00
2018-05-02T01:53:21.418Z,0.00
2018-05-02T01:54:21.357Z,0.00
2018-05-02T01:55:21.283Z,0.00
2018-05-02T01:56:21.223Z,0.00
2018-05-02T01:57:21.141Z,0.00
2018-05-02T01:58:21.074Z,0.00
2018-05-02T01:59:21.002Z,0.00
2018-05-02T02:00:20.940Z,0.00
2018-05-02T02:01:20.881Z,0.00
2018-05-02T02:02:20.797Z,0.00
2018-05-02T02:03:20.740Z,0.00
2018-05-02T02:04:20.662Z,0.00
2018-05-02T02:05:20.602Z,0.00
2018-05-02T02:06:20.529Z,0.00
2018-05-02T02:07:20.448Z,0.00
2018-05-02T02:08:20.386Z,0.00
2018-05-02T02:09:20.322Z,0.00
2018-05-02T02:10:20.256Z,0.00
2018-05-02T02:11:20.176Z,0.00
2018-05-02T02:12:20.114Z,0.00
2018-05-02T02:13:20.044Z,0.00
2018-05-02T02:14:19.981Z,0.00
2018-05-02T02:15:19.910Z,0.00
2018-05-02T02:16:19.894Z,0.00
2018-05-02T02:17:19.783Z,0.00
2018-05-02T02:18:19.696Z,0.00
2018-05-02T02:19:19.634Z,0.00
2018-05-02T02:20:19.568Z,0.00
2018-05-02T02:21:19.508Z,0.00
2018-05-02T02:22:19.424Z,0.00
2018-05-02T02:23:19.369Z,0.00
2018-05-02T02:24:19.281Z,0.00
2018-05-02T02:25:19.236Z,0.00
2018-05-02T02:26:19.144Z,0.00
2018-05-02T02:27:19.078Z,0.00
2018-05-02T02:28:19.006Z,0.00
2018-05-02T02:29:18.951Z,0.00
2018-05-02T02:30:18.869Z,0.00
2018-05-02T02:31:18.840Z,0.00
2018-05-02T02:32:18.740Z,0.00
2018-05-02T02:33:18.668Z,0.00
2018-05-02T02:34:18.602Z,0.00
2018-05-02T02:35:18.532Z,0.00
2018-05-02T02:36:18.473Z,0.00
2018-05-02T02:37:18.392Z,0.00
2018-05-02T02:38:18.333Z,0.00
2018-05-02T02:39:18.261Z,0.00
2018-05-02T02:40:18.185Z,0.00
2018-05-02T02:41:18.113Z,0.00
2018-05-02T02:42:18.042Z,0.00
2018-05-02T02:43:17.977Z,0.00
2018-05-02T02:44:17.910Z,0.00
2018-05-02T02:45:17.859Z,0.00
2018-05-02T02:46:17.783Z,0.00
2018-05-02T02:47:17.714Z,0.00
2018-05-02T02:48:17.637Z,0.00
2018-05-02T02:49:17.576Z,0.00
2018-05-02T02:50:17.513Z,0.00
2018-05-02T02:51:17.447Z,0.00
2018-05-02T02:52:17.368Z,0.00
2018-05-02T02:53:17.303Z,0.00
2018-05-02T02:54:17.227Z,0.00
2018-05-02T02:55:17.203Z,0.00
2018-05-02T02:56:17.099Z,0.00
2018-05-02T02:57:17.014Z,0.00
2018-05-02T02:58:16.965Z,0.00
2018-05-02T02:59:16.880Z,0.00
2018-05-02T03:00:16.817Z,0.00
2018-05-02T03:01:16.749Z,0.00
2018-05-02T03:02:16.684Z,0.00
2018-05-02T03:03:16.626Z,0.00
2018-05-02T03:04:16.532Z,0.00
2018-05-02T03:05:16.471Z,0.00
2018-05-02T03:06:16.390Z,0.00
2018-05-02T03:07:16.339Z,0.00
2018-05-02T03:08:16.270Z,0.00
2018-05-02T03:09:16.192Z,0.00
2018-05-02T03:10:16.129Z,0.00
2018-05-02T03:11:16.049Z,0.00
2018-05-02T03:12:15.991Z,0.00
2018-05-02T03:13:15.909Z,0.00
2018-05-02T03:14:15.841Z,0.00
2018-05-02T03:15:15.778Z,0.00
2018-05-02T03:16:15.698Z,0.00
2018-05-02T03:17:15.660Z,0.00
2018-05-02T03:18:15.580Z,0.00
2018-05-02T03:19:15.489Z,0.00
2018-05-02T03:20:15.420Z,0.00
2018-05-02T03:21:15.363Z,0.00
2018-05-02T03:22:15.285Z,0.00
2018-05-02T03:23:15.239Z,0.00
2018-05-02T03:24:15.171Z,0.00
2018-05-02T03:25:15.082Z,0.00
2018-05-02T03:26:15.023Z,0.00
2018-05-02T03:27:14.967Z,0.00
2018-05-02T03:28:14.912Z,0.00
2018-05-02T03:29:14.798Z,0.00
2018-05-02T03:30:14.750Z,0.00
2018-05-02T03:31:14.680Z,0.00
2018-05-02T03:32:14.602Z,0.00
2018-05-02T03:33:14.528Z,0.00
2018-05-02T03:34:14.478Z,0.00
2018-05-02T03:35:14.393Z,0.00
2018-05-02T03:36:14.339Z,0.00
2018-05-02T03:37:14.264Z,0.00
2018-05-02T03:38:14.199Z,0.00
2018-05-02T03:39:14.120Z,0.00
2018-05-02T03:40:14.046Z,0.00
2018-05-02T03:41:13.991Z,0.00
2018-05-02T03:42:13.907Z,0.00
2018-05-02T03:43:13.836Z,0.00
2018-05-02T03:44:13.764Z,0.00
2018-05-02T03:45:13.706Z,0.00
2018-05-02T03:46:13.622Z,0.00
2018-05-02T03:47:13.560Z,0.00
2018-05-02T03:48:13.498Z,0.00
2018-05-02T03:49:13.419Z,0.00
2018-05-02T03:50:13.349Z,0.00
2018-05-02T03:51:13.276Z,0.00
2018-05-02T03:52:13.225Z,0.00
2018-05-02T03:53:13.137Z,0.00
2018-05-02T03:54:13.094Z,0.00
2018-05-02T03:55:13.016Z,0.00
2018-05-02T03:56:12.943Z,0.00
2018-05-02T03:57:12.869Z,0.00
2018-05-02T03:58:12.808Z,0.00
2018-05-02T03:59:12.736Z,0.00
2018-05-02T04:00:12.667Z,0.00
2018-05-02T04:01:12.588Z,0.00
2018-05-02T04:02:12.523Z,0.00
2018-05-02T04:03:12.441Z,0.00
2018-05-02T04:04:12.375Z,0.00
2018-05-02T04:05:12.305Z,0.00
2018-05-02T04:06:12.241Z,0.00
2018-05-02T04:07:12.181Z,0.00
2018-05-02T04:08:12.106Z,0.00
2018-05-02T04:09:12.047Z,0.00
2018-05-02T04:10:11.961Z,0.00
2018-05-02T04:11:11.891Z,0.00
2018-05-02T04:12:11.825Z,0.00
2018-05-02T04:13:11.764Z,0.00
2018-05-02T04:14:11.692Z,0.00
2018-05-02T04:15:11.640Z,0.00
2018-05-02T04:16:11.551Z,0.00
2018-05-02T04:17:11.498Z,0.00
2018-05-02T04:18:11.423Z,0.00
2018-05-02T04:19:11.335Z,0.00
2018-05-02T04:20:11.264Z,0.00
2018-05-02T04:21:11.202Z,0.00
2018-05-02T04:22:11.129Z,0.00
2018-05-02T04:23:11.058Z,0.00
2018-05-02T04:24:10.992Z,0.00
2018-05-02T04:25:10.929Z,0.00
2018-05-02T04:26:10.868Z,0.00
2018-05-02T04:27:10.799Z,0.00
2018-05-02T04:28:10.722Z,0.00
2018-05-02T04:29:10.641Z,0.00
2018-05-02T04:30:10.587Z,0.00
2018-05-02T04:31:10.512Z,0.00
2018-05-02T04:32:10.442Z,0.00
2018-05-02T04:33:10.364Z,0.00
2018-05-02T04:34:10.294Z,0.00
2018-05-02T04:35:10.241Z,0.00
2018-05-02T04:36:10.173Z,4.00
2018-05-02T04:37:10.103Z,4.00
2018-05-02T04:38:10.017Z,0.00
2018-05-02T04:39:09.963Z,4.00
2018-05-02T04:40:09.895Z,4.00
2018-05-02T04:41:09.848Z,4.00
2018-05-02T04:42:09.753Z,8.00
2018-05-02T04:43:09.675Z,4.00
2018-05-02T04:44:09.599Z,8.00
2018-05-02T04:45:09.556Z,8.00
2018-05-02T04:46:09.457Z,12.00
2018-05-02T04:47:09.407Z,8.00
2018-05-02T04:48:09.362Z,12.00
2018-05-02T04:49:09.267Z,16.00
2018-05-02T04:50:09.195Z,20.00
2018-05-02T04:51:09.125Z,20.00
2018-05-02T04:52:09.057Z,28.00
2018-05-02T04:53:08.976Z,32.00
2018-05-02T04:54:08.912Z,32.00
2018-05-02T04:55:08.833Z,40.00
2018-05-02T04:56:08.771Z,44.00
2018-05-02T04:57:08.689Z,52.00
2018-05-02T04:58:08.640Z,60.00
2018-05-02T04:59:08.573Z,68.00
2018-05-02T05:00:08.502Z,80.00
2018-05-02T05:01:08.433Z,88.00
2018-05-02T05:02:08.357Z,100.00
2018-05-02T05:03:08.287Z,112.00
2018-05-02T05:04:08.211Z,124.00
2018-05-02T05:05:08.142Z,136.00
2018-05-02T05:06:08.090Z,152.00
2018-05-02T05:07:08.030Z,168.00
2018-05-02T05:08:07.931Z,184.00
2018-05-02T05:09:07.861Z,200.00
2018-05-02T05:10:07.795Z,216.00
2018-05-02T05:11:07.726Z,228.00
2018-05-02T05:12:07.656Z,252.00
2018-05-02T05:13:07.601Z,272.00
2018-05-02T05:14:07.511Z,292.00
2018-05-02T05:15:07.452Z,324.00
2018-05-02T05:16:07.371Z,352.00
2018-05-02T05:17:07.307Z,384.00
2018-05-02T05:18:07.233Z,412.00
2018-05-02T05:19:07.167Z,440.00
2018-05-02T05:20:07.107Z,472.00
2018-05-02T05:21:07.035Z,504.00
2018-05-02T05:22:06.957Z,536.00
2018-05-02T05:23:06.901Z,568.00
2018-05-02T05:24:06.832Z,600.00
2018-05-02T05:25:06.760Z,628.00
2018-05-02T05:26:06.687Z,660.00
2018-05-02T05:27:06.617Z,692.00
2018-05-02T05:28:06.554Z,724.00
2018-05-02T05:29:06.486Z,752.00
2018-05-02T05:30:06.409Z,784.00
2018-05-02T05:31:06.329Z,816.00
2018-05-02T05:32:06.268Z,848.00
2018-05-02T05:33:06.220Z,892.00
2018-05-02T05:34:06.129Z,928.00
2018-05-02T05:35:06.053Z,972.00
2018-05-02T05:36:06.019Z,1008.00
2018-05-02T05:37:05.933Z,1044.00
2018-05-02T05:38:05.845Z,1084.00
2018-05-02T05:39:05.789Z,1112.00
2018-05-02T05:40:05.730Z,1132.00
2018-05-02T05:41:05.636Z,1164.00
2018-05-02T05:42:05.580Z,1208.00
2018-05-02T05:43:05.522Z,1248.00
2018-05-02T05:44:05.442Z,1272.00
2018-05-02T05:45:05.361Z,1216.00
2018-05-02T05:46:05.306Z,1160.00
2018-05-02T05:47:05.240Z,1280.00
2018-05-02T05:48:05.158Z,1320.00
2018-05-02T05:49:05.098Z,1384.00
2018-05-02T05:50:05.032Z,1520.00
2018-05-02T05:51:04.970Z,1572.00
2018-05-02T05:52:04.899Z,1628.00
2018-05-02T05:53:04.816Z,1684.00
2018-05-02T05:54:04.799Z,1716.00
2018-05-02T05:55:04.684Z,1768.00
2018-05-02T05:56:04.609Z,1828.00
2018-05-02T05:57:04.542Z,1908.00
2018-05-02T05:58:04.543Z,1992.00
2018-05-02T05:59:04.422Z,2032.00
2018-05-02T06:00:04.343Z,2072.00
2018-05-02T06:01:04.258Z,2112.00
2018-05-02T06:02:04.204Z,2152.00
2018-05-02T06:03:04.149Z,2204.00
2018-05-02T06:04:04.070Z,2228.00
2018-05-02T06:05:04.091Z,2292.00
2018-05-02T06:06:03.926Z,2324.00
2018-05-02T06:07:03.854Z,2376.00
2018-05-02T06:08:03.804Z,2416.00
2018-05-02T06:09:03.708Z,2448.00
2018-05-02T06:10:03.661Z,2504.00
2018-05-02T06:11:03.580Z,2544.00
2018-05-02T06:12:03.512Z,2628.00
2018-05-02T06:13:03.436Z,2696.00
2018-05-02T06:14:03.370Z,2756.00
2018-05-02T06:15:03.316Z,2692.00
2018-05-02T06:16:03.232Z,2616.00
2018-05-02T06:17:03.206Z,2780.00
2018-05-02T06:18:03.105Z,2972.00
2018-05-02T06:19:03.028Z,3208.00
2018-05-02T06:20:02.969Z,3880.00
2018-05-02T06:21:02.901Z,4732.00
2018-05-02T06:22:02.829Z,5600.00
2018-05-02T06:23:02.752Z,4852.00
2018-05-02T06:24:02.716Z,3604.00
2018-05-02T06:25:02.632Z,3236.00
2018-05-02T06:26:02.574Z,3180.00
2018-05-02T06:27:02.505Z,3212.00
2018-05-02T06:28:02.431Z,3236.00
2018-05-02T06:29:02.367Z,3272.00
2018-05-02T06:30:02.318Z,3316.00
2018-05-02T06:31:02.287Z,3356.00
2018-05-02T06:32:02.150Z,3340.00
2018-05-02T06:33:02.106Z,3152.00
2018-05-02T06:34:02.023Z,3252.00
2018-05-02T06:35:01.944Z,3488.00
2018-05-02T06:36:01.880Z,3508.00
2018-05-02T06:37:01.825Z,3536.00
2018-05-02T06:38:01.745Z,3556.00
2018-05-02T06:39:01.691Z,3588.00
2018-05-02T06:40:01.613Z,3620.00
2018-05-02T06:41:01.538Z,3632.00
2018-05-02T06:42:01.472Z,3656.00
2018-05-02T06:43:01.401Z,3692.00
2018-05-02T06:44:01.348Z,3728.00
2018-05-02T06:45:01.265Z,3760.00
2018-05-02T06:46:01.200Z,3788.00
2018-05-02T06:47:01.166Z,3824.00
2018-05-02T06:48:01.095Z,3864.00
2018-05-02T06:49:01.020Z,3888.00
2018-05-02T06:50:00.939Z,3904.00
2018-05-02T06:51:00.896Z,3916.00
2018-05-02T06:52:00.822Z,3932.00
2018-05-02T06:53:00.749Z,3956.00
2018-05-02T06:54:00.672Z,3992.00
2018-05-02T06:55:00.602Z,4008.00
2018-05-02T06:56:00.540Z,4036.00
2018-05-02T06:57:00.475Z,4076.00
2018-05-02T06:58:00.417Z,4104.00
2018-05-02T06:59:00.336Z,4120.00
2018-05-02T07:00:00.295Z,4128.00
2018-05-02T07:01:00.208Z,4172.00
2018-05-02T07:02:00.152Z,4208.00
2018-05-02T07:03:00.069Z,4216.00
2018-05-02T07:04:00.016Z,4228.00
2018-05-02T07:04:59.932Z,4260.00
2018-05-02T07:05:59.874Z,4272.00
2018-05-02T07:06:59.796Z,4292.00
2018-05-02T07:07:59.745Z,4332.00
2018-05-02T07:08:59.682Z,4360.00
2018-05-02T07:09:59.600Z,4364.00
2018-05-02T07:10:59.538Z,4384.00
2018-05-02T07:11:59.489Z,4404.00
2018-05-02T07:12:59.406Z,4416.00
2018-05-02T07:13:59.348Z,4432.00
2018-05-02T07:14:59.284Z,4444.00
2018-05-02T07:15:59.209Z,4464.00
2018-05-02T07:16:59.138Z,4472.00
2018-05-02T07:17:59.083Z,4492.00
2018-05-02T07:18:59.006Z,4504.00
2018-05-02T07:19:58.949Z,4520.00
2018-05-02T07:20:58.866Z,4548.00
2018-05-02T07:21:58.812Z,4568.00
2018-05-02T07:22:58.742Z,4588.00
2018-05-02T07:23:58.734Z,4592.00
2018-05-02T07:24:58.621Z,4608.00
2018-05-02T07:25:58.564Z,4612.00
2018-05-02T07:26:58.495Z,4596.00
2018-05-02T07:27:58.408Z,4620.00
2018-05-02T07:28:58.345Z,4608.00
2018-05-02T07:29:58.281Z,4628.00
2018-05-02T07:30:58.248Z,4648.00
2018-05-02T07:31:58.157Z,4664.00
2018-05-02T07:32:58.140Z,4680.00
2018-05-02T07:33:58.029Z,4692.00
2018-05-02T07:34:57.952Z,4720.00
2018-05-02T07:35:57.908Z,4724.00
2018-05-02T07:36:57.823Z,4728.00
2018-05-02T07:37:57.774Z,4736.00
2018-05-02T07:38:57.688Z,4744.00
2018-05-02T07:39:57.633Z,4744.00
2018-05-02T07:40:57.574Z,4760.00
2018-05-02T07:41:57.507Z,4760.00
2018-05-02T07:42:57.444Z,4748.00
2018-05-02T07:43:57.357Z,4760.00
2018-05-02T07:44:57.292Z,4772.00
2018-05-02T07:45:57.254Z,4784.00
2018-05-02T07:46:57.166Z,4804.00
2018-05-02T07:47:57.128Z,4792.00
2018-05-02T07:48:57.035Z,4808.00
2018-05-02T07:49:56.960Z,4804.00
2018-05-02T07:50:56.913Z,4812.00
2018-05-02T07:51:56.860Z,4824.00
2018-05-02T07:52:56.769Z,4832.00
2018-05-02T07:53:56.762Z,4840.00
2018-05-02T07:54:56.649Z,4840.00
2018-05-02T07:55:56.568Z,4852.00
2018-05-02T07:56:56.498Z,4848.00
2018-05-02T07:57:56.447Z,4852.00
2018-05-02T07:58:56.429Z,4860.00
2018-05-02T07:59:56.312Z,4856.00
2018-05-02T08:00:56.242Z,4864.00
2018-05-02T08:01:56.183Z,4868.00
2018-05-02T08:02:56.117Z,4872.00
2018-05-02T08:03:56.083Z,4868.00
2018-05-02T08:04:55.972Z,4864.00
2018-05-02T08:05:55.910Z,4876.00
2018-05-02T08:06:55.855Z,4888.00
2018-05-02T08:07:55.776Z,4880.00
2018-05-02T08:08:55.719Z,4880.00
2018-05-02T08:09:55.668Z,4884.00
2018-05-02T08:10:55.605Z,4884.00
2018-05-02T08:11:55.523Z,4892.00
2018-05-02T08:12:55.464Z,4896.00
2018-05-02T08:13:55.390Z,4892.00
2018-05-02T08:14:55.347Z,4888.00
2018-05-02T08:15:55.274Z,4888.00
2018-05-02T08:16:55.204Z,4904.00
2018-05-02T08:17:55.143Z,4900.00
2018-05-02T08:18:55.085Z,4904.00
2018-05-02T08:19:55.006Z,4904.00
2018-05-02T08:20:54.933Z,4900.00
2018-05-02T08:21:54.881Z,4924.00
2018-05-02T08:22:54.806Z,4944.00
2018-05-02T08:23:54.766Z,4956.00
2018-05-02T08:24:54.692Z,4944.00
2018-05-02T08:25:54.629Z,4948.00
2018-05-02T08:26:54.542Z,4940.00
2018-05-02T08:27:54.490Z,4948.00
2018-05-02T08:28:54.411Z,4968.00
2018-05-02T08:29:54.364Z,4964.00
2018-05-02T08:30:54.293Z,4940.00
2018-05-02T08:31:54.215Z,4988.00
2018-05-02T08:32:54.176Z,4812.00
2018-05-02T08:33:54.111Z,4972.00
2018-05-02T08:34:54.044Z,4928.00
2018-05-02T08:35:53.959Z,4948.00
2018-05-02T08:36:53.894Z,4904.00
2018-05-02T08:37:53.839Z,4888.00
2018-05-02T08:38:53.873Z,4892.00
2018-05-02T08:39:53.720Z,4908.00
2018-05-02T08:40:53.637Z,4920.00
2018-05-02T08:41:53.577Z,4752.00
2018-05-02T08:42:53.509Z,4756.00
2018-05-02T08:43:53.443Z,4856.00
2018-05-02T08:44:53.391Z,4864.00
2018-05-02T08:45:53.319Z,4840.00
2018-05-02T08:46:53.254Z,4868.00
2018-05-02T08:47:53.206Z,4856.00
2018-05-02T08:48:53.149Z,4832.00
2018-05-02T08:49:53.088Z,4832.00
2018-05-02T08:50:53.024Z,4820.00
2018-05-02T08:51:52.932Z,4792.00
2018-05-02T08:52:52.896Z,4780.00
2018-05-02T08:53:52.803Z,4768.00
2018-05-02T08:54:52.753Z,4752.00
2018-05-02T08:55:52.686Z,4744.00
2018-05-02T08:56:52.609Z,4736.00
2018-05-02T08:57:52.556Z,4720.00
2018-05-02T08:58:52.498Z,4712.00
2018-05-02T08:59:52.438Z,4704.00
2018-05-02T09:00:52.373Z,4700.00
2018-05-02T09:01:52.298Z,4692.00
2018-05-02T09:02:52.223Z,4684.00
2018-05-02T09:03:52.174Z,4676.00
2018-05-02T09:04:52.107Z,4672.00
2018-05-02T09:05:52.045Z,4676.00
2018-05-02T09:06:51.986Z,4672.00
2018-05-02T09:07:51.909Z,4648.00
2018-05-02T09:08:51.857Z,4648.00
2018-05-02T09:09:51.801Z,4636.00
2018-05-02T09:10:51.726Z,4616.00
2018-05-02T09:11:51.651Z,4604.00
2018-05-02T09:12:51.600Z,4592.00
2018-05-02T09:13:51.533Z,4564.00
2018-05-02T09:14:51.467Z,4556.00
2018-05-02T09:15:51.403Z,4556.00
2018-05-02T09:16:51.327Z,4560.00
2018-05-02T09:17:51.265Z,4524.00
2018-05-02T09:18:51.205Z,4528.00
2018-05-02T09:19:51.161Z,4544.00
2018-05-02T09:20:51.091Z,4532.00
2018-05-02T09:21:51.018Z,4540.00
2018-05-02T09:22:50.955Z,4516.00
2018-05-02T09:23:50.884Z,4516.00
2018-05-02T09:24:50.832Z,4516.00
2018-05-02T09:25:50.849Z,4492.00
2018-05-02T09:26:50.704Z,4492.00
2018-05-02T09:27:50.646Z,4464.00
2018-05-02T09:28:50.576Z,4472.00
2018-05-02T09:29:50.514Z,4440.00
2018-05-02T09:30:50.440Z,4444.00
2018-05-02T09:31:50.390Z,4452.00
2018-05-02T09:32:50.332Z,4424.00
2018-05-02T09:33:50.262Z,4412.00
2018-05-02T09:34:50.209Z,4420.00
2018-05-02T09:35:50.136Z,4416.00
2018-05-02T09:36:50.077Z,4408.00
2018-05-02T09:37:50.004Z,4388.00
2018-05-02T09:38:49.943Z,4376.00
2018-05-02T09:39:49.875Z,4368.00
2018-05-02T09:40:49.843Z,4352.00
2018-05-02T09:41:49.736Z,4352.00
2018-05-02T09:42:49.688Z,4328.00
2018-05-02T09:43:49.644Z,4324.00
2018-05-02T09:44:49.548Z,4340.00
2018-05-02T09:45:49.494Z,4320.00
2018-05-02T09:46:49.439Z,4288.00
2018-05-02T09:47:49.382Z,4308.00
2018-05-02T09:48:49.329Z,4292.00
2018-05-02T09:49:49.236Z,4288.00
2018-05-02T09:50:49.181Z,4288.00
2018-05-02T09:51:49.100Z,4260.00
2018-05-02T09:52:49.093Z,4248.00
2018-05-02T09:53:49.025Z,4232.00
2018-05-02T09:54:48.918Z,4200.00
2018-05-02T09:55:48.861Z,4372.00
2018-05-02T09:56:48.792Z,4092.00
2018-05-02T09:57:48.742Z,4536.00
2018-05-02T09:58:48.705Z,4640.00
2018-05-02T09:59:48.600Z,4660.00
2018-05-02T10:00:48.550Z,4644.00
2018-05-02T10:01:48.472Z,4616.00
2018-05-02T10:02:48.439Z,4576.00
2018-05-02T10:03:48.358Z,4588.00
2018-05-02T10:04:48.288Z,4612.00
2018-05-02T10:05:48.222Z,4552.00
2018-05-02T10:06:48.187Z,4452.00
2018-05-02T10:07:48.092Z,4356.00
2018-05-02T10:08:48.035Z,4288.00
2018-05-02T10:09:47.972Z,4268.00
2018-05-02T10:10:47.965Z,4248.00
2018-05-02T10:11:47.862Z,4204.00
2018-05-02T10:12:47.838Z,4228.00
2018-05-02T10:13:47.725Z,4292.00
2018-05-02T10:14:47.658Z,4316.00
2018-05-02T10:15:47.591Z,4296.00
2018-05-02T10:16:47.536Z,4260.00
2018-05-02T10:17:47.463Z,4204.00
2018-05-02T10:18:47.415Z,4336.00
2018-05-02T10:19:47.338Z,4404.00
2018-05-02T10:20:47.296Z,4424.00
2018-05-02T10:21:47.220Z,4368.00
2018-05-02T10:22:47.167Z,4276.00
2018-05-02T10:23:47.140Z,4264.00
2018-05-02T10:24:47.043Z,4196.00
2018-05-02T10:25:46.970Z,4116.00
2018-05-02T10:26:46.900Z,4248.00
2018-05-02T10:27:46.872Z,4204.00
2018-05-02T10:28:46.785Z,4236.00
2018-05-02T10:29:46.724Z,4000.00
2018-05-02T10:30:46.656Z,3948.00
2018-05-02T10:31:46.611Z,4056.00
2018-05-02T10:32:46.538Z,4216.00
2018-05-02T10:33:46.483Z,4244.00
2018-05-02T10:34:46.401Z,4176.00
2018-05-02T10:35:46.347Z,4416.00
2018-05-02T10:36:46.276Z,4280.00
2018-05-02T10:37:46.226Z,4132.00
2018-05-02T10:38:46.168Z,3952.00
2018-05-02T10:39:46.104Z,3880.00
2018-05-02T10:40:46.036Z,3860.00
2018-05-02T10:41:45.954Z,3856.00
2018-05-02T10:42:45.898Z,3840.00
2018-05-02T10:43:45.831Z,3832.00
2018-05-02T10:44:45.773Z,3820.00
2018-05-02T10:45:45.713Z,3800.00
2018-05-02T10:46:45.653Z,3792.00
2018-05-02T10:47:45.587Z,3772.00
2018-05-02T10:48:45.529Z,3756.00
2018-05-02T10:49:45.460Z,3720.00
2018-05-02T10:50:45.405Z,3684.00
2018-05-02T10:51:45.350Z,3656.00
2018-05-02T10:52:45.286Z,3640.00
2018-05-02T10:53:45.203Z,3608.00
2018-05-02T10:54:45.135Z,3596.00
2018-05-02T10:55:45.083Z,3604.00
2018-05-02T10:56:45.011Z,3604.00
2018-05-02T10:57:44.967Z,3588.00
2018-05-02T10:58:44.891Z,3576.00
2018-05-02T10:59:44.832Z,3540.00
2018-05-02T11:00:44.764Z,3536.00
2018-05-02T11:01:44.710Z,3528.00
2018-05-02T11:02:44.637Z,3532.00
2018-05-02T11:03:44.575Z,3520.00
2018-05-02T11:04:44.522Z,3504.00
2018-05-02T11:05:44.450Z,3484.00
2018-05-02T11:06:44.397Z,3476.00
2018-05-02T11:07:44.315Z,3476.00
2018-05-02T11:08:44.267Z,3452.00
2018-05-02T11:09:44.198Z,3432.00
2018-05-02T11:10:44.137Z,3408.00
2018-05-02T11:11:44.089Z,3396.00
2018-05-02T11:12:44.000Z,3400.00
2018-05-02T11:13:43.944Z,3376.00
2018-05-02T11:14:43.892Z,3340.00
2018-05-02T11:15:43.827Z,3300.00
2018-05-02T11:16:43.749Z,3276.00
2018-05-02T11:17:43.717Z,3264.00
2018-05-02T11:18:43.629Z,3268.00
2018-05-02T11:19:43.559Z,3268.00
2018-05-02T11:20:43.495Z,3280.00
2018-05-02T11:21:43.448Z,3312.00
2018-05-02T11:22:43.377Z,3372.00
2018-05-02T11:23:43.324Z,3452.00
2018-05-02T11:24:43.249Z,3528.00
2018-05-02T11:25:43.191Z,3572.00
2018-05-02T11:26:43.136Z,3560.00
2018-05-02T11:27:43.054Z,3500.00
2018-05-02T11:28:42.999Z,3404.00
2018-05-02T11:29:42.933Z,3348.00
2018-05-02T11:30:42.878Z,3228.00
2018-05-02T11:31:42.803Z,3096.00
2018-05-02T11:32:42.745Z,3036.00
2018-05-02T11:33:42.703Z,3036.00
2018-05-02T11:34:42.642Z,3048.00
2018-05-02T11:35:42.564Z,3076.00
2018-05-02T11:36:42.501Z,3096.00
2018-05-02T11:37:42.421Z,3116.00
2018-05-02T11:38:42.377Z,3128.00
2018-05-02T11:39:42.311Z,3116.00
2018-05-02T11:40:42.274Z,3112.00
2018-05-02T11:41:42.179Z,3124.00
2018-05-02T11:42:42.111Z,3188.00
2018-05-02T11:43:42.058Z,3236.00
2018-05-02T11:44:41.994Z,3224.00
2018-05-02T11:45:41.925Z,3148.00
2018-05-02T11:46:41.870Z,3048.00
2018-05-02T11:47:41.836Z,3068.00
2018-05-02T11:48:41.727Z,3092.00
2018-05-02T11:49:41.667Z,3188.00
2018-05-02T11:50:41.614Z,3140.00
2018-05-02T11:51:41.553Z,3064.00
2018-05-02T11:52:41.485Z,2968.00
2018-05-02T11:53:41.423Z,2872.00
2018-05-02T11:54:41.359Z,2808.00
2018-05-02T11:55:41.282Z,2744.00
2018-05-02T11:56:41.212Z,2720.00
2018-05-02T11:57:41.180Z,2688.00
2018-05-02T11:58:41.104Z,2668.00
2018-05-02T11:59:41.032Z,2636.00
2018-05-02T12:00:40.985Z,2616.00
2018-05-02T12:01:40.898Z,2604.00
2018-05-02T12:02:40.847Z,2604.00
2018-05-02T12:03:40.792Z,2600.00
2018-05-02T12:04:40.710Z,2584.00
2018-05-02T12:05:40.667Z,2576.00
2018-05-02T12:06:40.583Z,2564.00
2018-05-02T12:07:40.539Z,2540.00
2018-05-02T12:08:40.485Z,2528.00
2018-05-02T12:09:40.395Z,2512.00
2018-05-02T12:10:40.342Z,2488.00
2018-05-02T12:11:40.277Z,2480.00
2018-05-02T12:12:40.222Z,2472.00
2018-05-02T12:13:40.158Z,2456.00
2018-05-02T12:14:40.083Z,2436.00
2018-05-02T12:15:40.021Z,2408.00
2018-05-02T12:16:39.968Z,2380.00
2018-05-02T12:17:39.888Z,2372.00
2018-05-02T12:18:39.832Z,2352.00
2018-05-02T12:19:39.780Z,2340.00
2018-05-02T12:20:39.716Z,2320.00
2018-05-02T12:21:39.649Z,2288.00
2018-05-02T12:22:39.573Z,2272.00
2018-05-02T12:23:39.506Z,2264.00
2018-05-02T12:24:39.442Z,2252.00
2018-05-02T12:25:39.398Z,2256.00
2018-05-02T12:26:39.326Z,2244.00
2018-05-02T12:27:39.285Z,2228.00
2018-05-02T12:28:39.191Z,2220.00
2018-05-02T12:29:39.127Z,2212.00
2018-05-02T12:30:39.064Z,2208.00
2018-05-02T12:31:39.014Z,2196.00
2018-05-02T12:32:38.969Z,2188.00